createdAt,value
2023-06-04T00:00:32.730Z,14.40
2023-06-04T00:03:05.943Z,14.40
2023-06-04T00:05:39.132Z,14.30
2023-06-04T00:08:12.250Z,14.20
2023-06-04T00:10:45.389Z,14.30
2023-06-04T00:13:18.495Z,14.20
2023-06-04T00:15:53.246Z,14.20
2023-06-04T00:18:26.763Z,14.20
2023-06-04T00:20:59.889Z,14.20
2023-06-04T00:23:33.048Z,14.10
2023-06-04T00:26:06.530Z,14.00
2023-06-04T00:28:39.684Z,14.00
2023-06-04T00:31:14.432Z,14.00
2023-06-04T00:33:47.513Z,14.00
2023-06-04T00:36:20.690Z,14.00
2023-06-04T00:38:53.804Z,13.90
2023-06-04T00:41:27.392Z,13.90
2023-06-04T00:44:02.724Z,13.90
2023-06-04T00:46:37.910Z,13.80
2023-06-04T00:49:13.386Z,13.80
2023-06-04T00:51:46.580Z,13.90
2023-06-04T00:54:21.398Z,13.90
2023-06-04T00:56:54.619Z,13.70
2023-06-04T00:59:27.804Z,13.60
2023-06-04T01:02:08.030Z,13.50
2023-06-04T01:04:49.982Z,13.50
2023-06-04T01:07:24.623Z,13.50
2023-06-04T01:09:58.158Z,13.40
2023-06-04T01:12:31.311Z,13.30
2023-06-04T01:15:04.877Z,13.40
2023-06-04T01:17:43.033Z,13.40
2023-06-04T01:20:29.183Z,13.30
2023-06-04T01:23:28.268Z,13.30
2023-06-04T01:26:03.809Z,13.30
2023-06-04T01:28:37.841Z,13.30
2023-06-04T01:31:11.352Z,13.30
2023-06-04T01:33:46.247Z,13.20
2023-06-04T01:36:19.414Z,13.10
2023-06-04T01:38:53.134Z,13.10
2023-06-04T01:41:26.290Z,13.10
2023-06-04T01:43:59.927Z,13.10
2023-06-04T01:46:33.136Z,13.10
2023-06-04T01:49:07.671Z,13.00
2023-06-04T01:51:40.759Z,13.00
2023-06-04T01:54:13.932Z,13.00
2023-06-04T01:56:47.438Z,13.10
2023-06-04T01:59:21.337Z,13.00
2023-06-04T02:01:54.487Z,12.90
2023-06-04T02:04:28.978Z,13.00
2023-06-04T02:07:02.712Z,12.90
2023-06-04T02:09:36.071Z,12.90
2023-06-04T02:12:10.174Z,12.90
2023-06-04T02:14:43.973Z,12.90
2023-06-04T02:17:17.362Z,12.80
2023-06-04T02:19:52.320Z,12.80
2023-06-04T02:22:27.406Z,12.70
2023-06-04T02:25:00.567Z,12.60
2023-06-04T02:27:33.784Z,12.50
2023-06-04T02:30:08.890Z,12.50
2023-06-04T02:32:42.099Z,12.50
2023-06-04T02:35:16.736Z,12.50
2023-06-04T02:37:49.926Z,12.50
2023-06-04T02:40:23.017Z,12.50
2023-06-04T02:42:56.947Z,12.40
2023-06-04T02:45:30.349Z,12.40
2023-06-04T02:48:03.522Z,12.40
2023-06-04T02:50:38.041Z,12.50
2023-06-04T02:53:11.219Z,12.50
2023-06-04T02:55:44.355Z,12.50
2023-06-04T02:58:17.463Z,12.40
2023-06-04T03:00:50.751Z,12.50
2023-06-04T03:03:24.671Z,12.50
2023-06-04T03:06:00.876Z,12.50
2023-06-04T03:08:34.068Z,12.50
2023-06-04T03:11:07.797Z,12.40
2023-06-04T03:13:41.561Z,12.40
2023-06-04T03:16:14.854Z,12.30
2023-06-04T03:18:48.010Z,12.20
2023-06-04T03:21:22.565Z,12.20
2023-06-04T03:23:55.794Z,12.00
2023-06-04T03:26:28.938Z,11.90
2023-06-04T03:29:02.297Z,11.80
2023-06-04T03:31:35.485Z,11.70
2023-06-04T03:34:08.577Z,11.80
2023-06-04T03:36:43.267Z,11.80
2023-06-04T03:39:16.369Z,11.90
2023-06-04T03:41:49.483Z,11.70
2023-06-04T03:44:23.749Z,11.70
2023-06-04T03:46:56.959Z,11.60
2023-06-04T03:49:30.123Z,11.60
2023-06-04T03:52:04.889Z,11.60
2023-06-04T03:54:38.026Z,11.60
2023-06-04T03:57:11.206Z,11.70
2023-06-04T03:59:44.945Z,11.90
2023-06-04T04:02:19.146Z,12.00
2023-06-04T04:04:55.443Z,12.10
2023-06-04T04:07:29.949Z,12.20
2023-06-04T04:10:03.146Z,12.20
2023-06-04T04:12:36.299Z,12.20
2023-06-04T04:15:10.734Z,12.20
2023-06-04T04:17:43.918Z,12.20
2023-06-04T04:20:19.172Z,12.20
2023-06-04T04:22:54.044Z,12.20
2023-06-04T04:25:27.739Z,12.20
2023-06-04T04:28:01.814Z,12.20
2023-06-04T04:30:36.057Z,12.20
2023-06-04T04:33:09.219Z,12.20
2023-06-04T04:35:43.307Z,12.40
2023-06-04T04:38:18.258Z,12.40
2023-06-04T04:40:53.344Z,12.50
2023-06-04T04:43:35.552Z,12.70
2023-06-04T04:46:09.271Z,12.70
2023-06-04T04:48:43.438Z,12.60
2023-06-04T04:51:16.565Z,12.80
2023-06-04T04:53:51.510Z,13.00
2023-06-04T04:56:24.644Z,13.20
2023-06-04T04:58:58.088Z,13.40
2023-06-04T05:01:31.192Z,13.60
2023-06-04T05:04:05.319Z,14.00
2023-06-04T05:06:39.750Z,14.40
2023-06-04T05:09:14.176Z,14.60
2023-06-04T05:11:47.326Z,14.70
2023-06-04T05:14:20.360Z,14.70
2023-06-04T05:16:53.630Z,14.70
2023-06-04T05:19:26.732Z,14.60
2023-06-04T05:21:59.828Z,14.50
2023-06-04T05:24:34.700Z,14.50
2023-06-04T05:27:07.792Z,14.60
2023-06-04T05:29:40.936Z,14.70
2023-06-04T05:32:13.970Z,14.70
2023-06-04T05:34:48.230Z,14.80
2023-06-04T05:37:21.260Z,14.70
2023-06-04T05:39:56.649Z,14.90
2023-06-04T05:42:29.772Z,15.00
2023-06-04T05:45:03.047Z,15.30
2023-06-04T05:47:36.206Z,15.60
2023-06-04T05:50:10.337Z,15.60
2023-06-04T05:52:43.447Z,15.70
2023-06-04T05:55:17.965Z,15.80
2023-06-04T05:57:52.578Z,16.30
2023-06-04T06:00:26.045Z,16.90
2023-06-04T06:02:59.943Z,17.20
2023-06-04T06:05:33.106Z,17.50
2023-06-04T06:08:07.244Z,17.60
2023-06-04T06:10:41.753Z,17.80
2023-06-04T06:13:15.013Z,18.10
2023-06-04T06:15:49.626Z,18.30
2023-06-04T06:18:22.973Z,18.40
2023-06-04T06:20:56.124Z,18.90
2023-06-04T06:23:29.195Z,19.10
2023-06-04T06:26:05.216Z,19.10
2023-06-04T06:28:38.354Z,19.50
2023-06-04T06:31:11.669Z,20.20
2023-06-04T06:33:44.733Z,20.00
2023-06-04T06:36:19.956Z,20.00
2023-06-04T06:38:53.478Z,20.40
2023-06-04T06:41:28.201Z,20.80
2023-06-04T06:44:01.261Z,21.20
2023-06-04T06:46:34.571Z,21.50
2023-06-04T06:49:07.780Z,21.60
2023-06-04T06:51:40.817Z,21.90
2023-06-04T06:54:17.911Z,22.10
2023-06-04T06:56:52.402Z,22.30
2023-06-04T06:59:26.268Z,22.70
2023-06-04T07:01:59.382Z,22.90
2023-06-04T07:04:32.466Z,23.00
2023-06-04T07:07:06.796Z,23.20
2023-06-04T07:09:39.882Z,23.30
2023-06-04T07:12:14.237Z,23.30
2023-06-04T07:14:47.333Z,23.50
2023-06-04T07:17:20.466Z,23.90
2023-06-04T07:19:53.510Z,24.30
2023-06-04T07:22:26.543Z,24.50
2023-06-04T07:24:59.573Z,24.50
2023-06-04T07:27:34.014Z,24.30
2023-06-04T07:30:11.476Z,24.80
2023-06-04T07:32:49.195Z,24.70
2023-06-04T07:35:22.367Z,24.80
2023-06-04T07:37:55.527Z,24.80
2023-06-04T07:40:28.606Z,25.00
2023-06-04T07:43:02.999Z,25.10
2023-06-04T07:45:36.413Z,25.40
2023-06-04T07:48:11.779Z,24.90
2023-06-04T07:50:44.909Z,24.90
2023-06-04T07:53:17.960Z,25.20
2023-06-04T07:55:52.286Z,25.20
2023-06-04T07:58:27.310Z,25.30
2023-06-04T08:01:00.470Z,24.90
2023-06-04T08:03:33.996Z,25.30
2023-06-04T08:06:07.413Z,25.60
2023-06-04T08:08:40.457Z,25.70
2023-06-04T08:11:13.712Z,26.10
2023-06-04T08:13:48.111Z,26.10
2023-06-04T08:16:21.233Z,25.60
2023-06-04T08:18:54.305Z,25.40
2023-06-04T08:21:30.909Z,25.60
2023-06-04T08:24:04.492Z,25.40
2023-06-04T08:26:37.694Z,25.00
2023-06-04T08:29:12.115Z,25.60
2023-06-04T08:31:45.206Z,25.80
2023-06-04T08:34:18.292Z,25.50
2023-06-04T08:36:51.475Z,25.70
2023-06-04T08:39:25.145Z,25.80
2023-06-04T08:42:03.203Z,25.70
2023-06-04T08:44:37.643Z,25.90
2023-06-04T08:47:13.667Z,25.90
2023-06-04T08:49:49.528Z,26.00
2023-06-04T08:52:22.726Z,26.00
2023-06-04T08:54:57.868Z,26.20
2023-06-04T08:57:33.040Z,26.50
2023-06-04T09:00:09.737Z,26.50
2023-06-04T09:02:43.188Z,26.50
2023-06-04T09:05:23.857Z,26.00
2023-06-04T09:08:02.980Z,26.10
2023-06-04T09:10:38.636Z,25.60
2023-06-04T09:13:13.229Z,25.70
2023-06-04T09:15:47.624Z,26.00
2023-06-04T09:18:20.661Z,26.20
2023-06-04T09:21:04.272Z,26.10
2023-06-04T09:23:39.027Z,25.70
2023-06-04T09:26:12.784Z,25.60
2023-06-04T09:28:47.948Z,25.60
2023-06-04T09:31:23.358Z,25.10
2023-06-04T09:33:56.390Z,25.20
2023-06-04T09:36:32.842Z,24.80
2023-06-04T09:39:06.236Z,24.80
2023-06-04T09:41:39.571Z,25.20
2023-06-04T09:44:13.397Z,25.40
2023-06-04T09:46:57.447Z,25.30
2023-06-04T09:49:30.879Z,25.30
2023-06-04T09:52:03.951Z,25.70
2023-06-04T09:54:38.942Z,26.10
2023-06-04T09:57:18.143Z,26.30
2023-06-04T09:59:52.895Z,26.10
2023-06-04T10:02:31.667Z,26.10
2023-06-04T10:05:09.808Z,26.20
2023-06-04T10:07:46.012Z,26.40
2023-06-04T10:10:22.797Z,26.20
2023-06-04T10:13:03.317Z,26.40
2023-06-04T10:15:38.412Z,26.10
2023-06-04T10:18:13.266Z,26.40
2023-06-04T10:20:47.048Z,26.60
2023-06-04T10:23:23.080Z,26.40
2023-06-04T10:25:57.104Z,26.30
2023-06-04T10:28:30.679Z,26.00
2023-06-04T10:31:04.576Z,26.20
2023-06-04T10:33:39.390Z,26.00
2023-06-04T10:36:20.981Z,25.90
2023-06-04T10:38:56.405Z,25.70
2023-06-04T10:41:29.814Z,25.60
2023-06-04T10:44:04.415Z,25.60
2023-06-04T10:46:42.284Z,25.90
2023-06-04T10:49:16.962Z,26.00
2023-06-04T10:51:50.057Z,26.00
2023-06-04T10:54:27.041Z,25.70
2023-06-04T10:57:00.056Z,25.70
2023-06-04T10:59:33.061Z,25.90
2023-06-04T11:02:08.163Z,25.90
2023-06-04T11:04:43.700Z,25.60
2023-06-04T11:07:16.939Z,25.50
2023-06-04T11:09:51.453Z,25.80
2023-06-04T11:12:24.520Z,25.50
2023-06-04T11:14:57.822Z,25.50
2023-06-04T11:17:31.626Z,25.60
2023-06-04T11:20:18.294Z,25.60
2023-06-04T11:22:56.939Z,25.20
2023-06-04T11:25:31.612Z,25.10
2023-06-04T11:28:04.809Z,25.20
2023-06-04T11:30:38.060Z,25.30
2023-06-04T11:33:11.207Z,25.50
2023-06-04T11:35:45.692Z,25.60
2023-06-04T11:38:18.753Z,25.50
2023-06-04T11:41:00.253Z,25.50
2023-06-04T11:43:36.068Z,25.40
2023-06-04T11:46:11.051Z,25.50
2023-06-04T11:48:46.305Z,25.40
2023-06-04T11:51:21.890Z,25.60
2023-06-04T11:53:56.206Z,25.40
2023-06-04T11:56:29.339Z,25.20
2023-06-04T11:59:02.538Z,25.20
2023-06-04T12:01:35.625Z,25.30
2023-06-04T12:04:14.942Z,25.30
2023-06-04T12:06:57.589Z,25.30
2023-06-04T12:09:33.977Z,25.20
2023-06-04T12:12:08.803Z,25.30
2023-06-04T12:14:44.182Z,25.20
2023-06-04T12:17:17.314Z,25.30
2023-06-04T12:19:52.532Z,25.40
2023-06-04T12:22:28.923Z,25.40
2023-06-04T12:25:04.168Z,25.30
2023-06-04T12:27:38.607Z,25.20
2023-06-04T12:30:12.921Z,25.20
2023-06-04T12:32:46.431Z,25.10
2023-06-04T12:35:19.596Z,25.10
2023-06-04T12:37:54.063Z,25.10
2023-06-04T12:40:27.132Z,25.30
2023-06-04T12:43:00.202Z,25.10
2023-06-04T12:45:33.317Z,25.30
2023-06-04T12:48:06.969Z,25.40
2023-06-04T12:50:40.140Z,25.10
2023-06-04T12:53:14.544Z,25.10
2023-06-04T12:55:47.612Z,24.90
2023-06-04T12:58:20.632Z,24.80
2023-06-04T13:00:53.700Z,24.90
2023-06-04T13:03:27.878Z,25.00
2023-06-04T13:06:01.097Z,25.00
2023-06-04T13:08:36.284Z,25.00
2023-06-04T13:11:10.866Z,24.70
2023-06-04T13:13:44.145Z,24.90
2023-06-04T13:16:17.291Z,24.70
2023-06-04T13:18:50.430Z,24.80
2023-06-04T13:21:23.867Z,24.90
2023-06-04T13:23:58.312Z,25.00
2023-06-04T13:26:31.856Z,25.00
2023-06-04T13:29:04.921Z,25.00
2023-06-04T13:31:39.826Z,25.20
2023-06-04T13:34:27.016Z,25.30
2023-06-04T13:37:01.679Z,25.20
2023-06-04T13:39:36.056Z,25.20
2023-06-04T13:42:09.789Z,25.30
2023-06-04T13:44:42.809Z,25.20
2023-06-04T13:47:16.331Z,25.10
2023-06-04T13:49:49.443Z,25.00
2023-06-04T13:52:22.496Z,24.90
2023-06-04T13:54:56.999Z,24.90
2023-06-04T13:57:30.473Z,24.90
2023-06-04T14:00:03.643Z,25.00
2023-06-04T14:02:37.091Z,25.10
2023-06-04T14:05:11.057Z,25.40
2023-06-04T14:07:44.903Z,25.40
2023-06-04T14:10:19.383Z,25.30
2023-06-04T14:12:52.520Z,25.30
2023-06-04T14:15:25.679Z,25.20
2023-06-04T14:17:58.743Z,25.00
2023-06-04T14:20:32.281Z,24.90
2023-06-04T14:23:05.781Z,24.90
2023-06-04T14:25:40.414Z,24.90
2023-06-04T14:28:13.479Z,24.90
2023-06-04T14:30:46.584Z,24.80
2023-06-04T14:33:19.677Z,24.70
2023-06-04T14:35:52.722Z,24.80
2023-06-04T14:38:25.782Z,24.90
2023-06-04T14:41:01.390Z,24.90
2023-06-04T14:43:34.506Z,24.90
2023-06-04T14:46:07.575Z,24.90
2023-06-04T14:48:40.984Z,24.80
2023-06-04T14:51:14.189Z,24.70
2023-06-04T14:53:47.930Z,24.70
2023-06-04T14:56:23.558Z,24.80
2023-06-04T14:58:56.725Z,24.80
2023-06-04T15:01:29.887Z,24.80
2023-06-04T15:04:03.112Z,24.70
2023-06-04T15:06:36.831Z,24.60
2023-06-04T15:09:09.983Z,24.70
2023-06-04T15:11:44.423Z,24.80
2023-06-04T15:14:17.473Z,24.70
2023-06-04T15:16:50.675Z,24.60
2023-06-04T15:19:23.824Z,24.60
2023-06-04T15:21:56.927Z,24.60
2023-06-04T15:24:30.935Z,24.70
2023-06-04T15:27:05.988Z,24.80
2023-06-04T15:29:39.044Z,24.70
2023-06-04T15:32:12.893Z,24.90
2023-06-04T15:34:46.005Z,24.80
2023-06-04T15:37:19.065Z,24.60
2023-06-04T15:39:52.129Z,24.60
2023-06-04T15:42:26.531Z,24.60
2023-06-04T15:45:02.179Z,24.60
2023-06-04T15:47:38.422Z,24.60
2023-06-04T15:50:11.796Z,24.70
2023-06-04T15:52:45.130Z,24.90
2023-06-04T15:55:18.616Z,24.80
2023-06-04T15:57:53.328Z,24.90
2023-06-04T16:00:27.034Z,24.90
2023-06-04T16:03:00.312Z,24.90
2023-06-04T16:05:33.391Z,24.90
2023-06-04T16:08:06.581Z,24.70
2023-06-04T16:10:40.992Z,24.60
2023-06-04T16:13:15.942Z,24.60
2023-06-04T16:15:49.120Z,24.50
2023-06-04T16:18:22.193Z,24.50
2023-06-04T16:20:56.362Z,24.40
2023-06-04T16:23:29.409Z,24.60
2023-06-04T16:26:02.614Z,24.40
2023-06-04T16:28:37.077Z,24.30
2023-06-04T16:31:10.304Z,24.20
2023-06-04T16:33:43.337Z,24.20
2023-06-04T16:36:16.509Z,24.10
2023-06-04T16:38:49.613Z,24.00
2023-06-04T16:41:22.981Z,24.00
2023-06-04T16:43:57.465Z,23.90
2023-06-04T16:46:31.011Z,23.90
2023-06-04T16:49:04.067Z,23.80
2023-06-04T16:51:37.254Z,23.90
2023-06-04T16:54:10.412Z,23.90
2023-06-04T16:56:43.533Z,24.00
2023-06-04T16:59:17.992Z,24.10
2023-06-04T17:01:51.052Z,24.10
2023-06-04T17:04:24.083Z,24.30
2023-06-04T17:06:57.743Z,24.60
2023-06-04T17:09:31.077Z,24.50
2023-06-04T17:12:04.705Z,24.50
2023-06-04T17:14:39.362Z,24.50
2023-06-04T17:17:12.481Z,24.50
2023-06-04T17:19:48.149Z,24.40
2023-06-04T17:22:21.430Z,24.30
2023-06-04T17:24:54.666Z,24.30
2023-06-04T17:27:27.775Z,24.30
2023-06-04T17:30:02.188Z,24.30
2023-06-04T17:32:35.312Z,24.20
2023-06-04T17:35:10.692Z,24.10
2023-06-04T17:37:43.944Z,24.10
2023-06-04T17:40:17.150Z,24.00
2023-06-04T17:42:50.260Z,24.00
2023-06-04T17:45:24.706Z,23.90
2023-06-04T17:47:58.584Z,23.80
2023-06-04T17:50:31.693Z,23.70
2023-06-04T17:53:04.837Z,23.60
2023-06-04T17:55:37.965Z,23.50
2023-06-04T17:58:11.226Z,23.50
2023-06-04T18:00:45.797Z,23.50
2023-06-04T18:03:18.997Z,23.40
2023-06-04T18:05:52.460Z,23.30
2023-06-04T18:08:25.610Z,23.30
2023-06-04T18:10:59.760Z,23.20
2023-06-04T18:13:32.838Z,23.20
2023-06-04T18:16:08.056Z,23.10
2023-06-04T18:18:41.254Z,23.00
2023-06-04T18:21:14.374Z,23.00
2023-06-04T18:23:50.874Z,22.90
2023-06-04T18:26:24.100Z,22.90
2023-06-04T18:28:57.130Z,22.80
2023-06-04T18:31:31.643Z,22.80
2023-06-04T18:34:05.130Z,22.70
2023-06-04T18:36:38.293Z,22.60
2023-06-04T18:39:11.362Z,22.60
2023-06-04T18:41:44.393Z,22.50
2023-06-04T18:44:17.481Z,22.50
2023-06-04T18:46:52.096Z,22.40
2023-06-04T18:49:25.255Z,22.30
2023-06-04T18:51:58.337Z,22.20
2023-06-04T18:54:31.362Z,22.20
2023-06-04T18:57:04.826Z,22.10
2023-06-04T18:59:37.920Z,22.00
2023-06-04T19:02:12.284Z,22.00
2023-06-04T19:04:46.935Z,21.90
2023-06-04T19:07:20.962Z,21.80
2023-06-04T19:09:54.077Z,21.70
2023-06-04T19:12:27.801Z,21.60
2023-06-04T19:15:00.990Z,21.50
2023-06-04T19:17:35.414Z,21.40
2023-06-04T19:20:09.543Z,21.40
2023-06-04T19:22:43.377Z,21.30
2023-06-04T19:25:16.628Z,21.20
2023-06-04T19:27:54.745Z,21.10
2023-06-04T19:30:27.840Z,21.00
2023-06-04T19:33:02.299Z,21.00
2023-06-04T19:35:36.192Z,20.90
2023-06-04T19:38:09.609Z,20.80
2023-06-04T19:40:42.672Z,20.70
2023-06-04T19:43:15.998Z,20.40
2023-06-04T19:45:50.444Z,20.20
2023-06-04T19:48:24.932Z,20.10
2023-06-04T19:50:57.991Z,19.90
2023-06-04T19:53:31.235Z,19.90
2023-06-04T19:56:04.330Z,19.80
2023-06-04T19:58:37.370Z,19.70
2023-06-04T20:01:11.588Z,19.70
2023-06-04T20:03:46.136Z,19.60
2023-06-04T20:06:19.719Z,19.50
2023-06-04T20:08:52.772Z,19.40
2023-06-04T20:11:27.273Z,19.40
2023-06-04T20:14:01.258Z,19.20
2023-06-04T20:16:34.775Z,19.20
2023-06-04T20:19:09.312Z,19.10
2023-06-04T20:21:42.509Z,19.00
2023-06-04T20:24:18.057Z,18.80
2023-06-04T20:26:52.637Z,18.70
2023-06-04T20:29:28.216Z,18.60
2023-06-04T20:32:01.322Z,18.60
2023-06-04T20:34:35.788Z,18.50
2023-06-04T20:37:08.922Z,18.40
2023-06-04T20:39:43.458Z,18.40
2023-06-04T20:42:16.758Z,18.30
2023-06-04T20:44:50.042Z,18.20
2023-06-04T20:47:23.195Z,18.10
2023-06-04T20:49:57.696Z,18.00
2023-06-04T20:52:30.767Z,17.90
2023-06-04T20:55:03.984Z,17.80
2023-06-04T20:57:37.770Z,17.80
2023-06-04T21:00:12.035Z,17.80
2023-06-04T21:02:45.277Z,17.60
2023-06-04T21:05:19.811Z,17.50
2023-06-04T21:07:52.929Z,17.30
2023-06-04T21:10:27.537Z,17.30
2023-06-04T21:13:00.781Z,17.30
2023-06-04T21:15:33.871Z,17.20
2023-06-04T21:18:07.072Z,17.10
2023-06-04T21:20:41.557Z,17.00
2023-06-04T21:23:14.688Z,16.90
2023-06-04T21:25:47.992Z,16.90
2023-06-04T21:28:21.088Z,16.80
2023-06-04T21:30:54.177Z,16.80
2023-06-04T21:33:27.990Z,16.80
2023-06-04T21:36:02.507Z,16.70
2023-06-04T21:38:35.622Z,16.60
2023-06-04T21:41:09.057Z,16.50
2023-06-04T21:43:42.336Z,16.40
2023-06-04T21:46:15.907Z,16.30
2023-06-04T21:48:49.211Z,16.20
2023-06-04T21:51:23.820Z,16.10
2023-06-04T21:53:57.017Z,16.10
2023-06-04T21:56:30.153Z,16.10
2023-06-04T21:59:03.308Z,16.00
2023-06-04T22:01:36.580Z,15.90
2023-06-04T22:04:09.771Z,15.90
2023-06-04T22:06:44.380Z,15.80
2023-06-04T22:09:17.679Z,15.80
2023-06-04T22:11:50.863Z,15.80
2023-06-04T22:14:24.127Z,15.80
2023-06-04T22:16:57.376Z,15.70
2023-06-04T22:19:30.547Z,15.70
2023-06-04T22:22:05.337Z,15.60
2023-06-04T22:24:38.507Z,15.60
2023-06-04T22:27:11.810Z,15.50
2023-06-04T22:29:45.001Z,15.40
2023-06-04T22:32:18.153Z,15.40
2023-06-04T22:34:51.345Z,15.30
2023-06-04T22:37:25.896Z,15.20
2023-06-04T22:40:00.411Z,15.10
2023-06-04T22:42:33.660Z,14.90
2023-06-04T22:45:08.371Z,15.00
2023-06-04T22:47:41.654Z,14.90
2023-06-04T22:50:14.854Z,14.90
2023-06-04T22:52:49.854Z,14.70
2023-06-04T22:55:23.236Z,14.70
2023-06-04T22:57:56.392Z,14.70
2023-06-04T23:00:29.597Z,14.60
2023-06-04T23:03:02.994Z,14.60
2023-06-04T23:05:36.312Z,14.70
2023-06-04T23:08:10.843Z,14.50
2023-06-04T23:10:44.162Z,14.50
2023-06-04T23:13:18.408Z,14.50
2023-06-04T23:15:51.799Z,14.50
2023-06-04T23:18:25.002Z,14.30
2023-06-04T23:20:58.266Z,14.40
2023-06-04T23:23:32.821Z,14.40
2023-06-04T23:26:06.111Z,14.40
2023-06-04T23:28:39.339Z,14.30
2023-06-04T23:31:12.542Z,14.30
2023-06-04T23:33:45.972Z,14.30
2023-06-04T23:36:19.337Z,14.30
2023-06-04T23:38:53.923Z,14.20
2023-06-04T23:41:27.159Z,14.10
2023-06-04T23:44:00.600Z,14.00
2023-06-04T23:46:33.846Z,13.90
2023-06-04T23:49:07.134Z,13.80
2023-06-04T23:51:40.404Z,13.80
2023-06-04T23:54:18.585Z,13.70
2023-06-04T23:56:52.413Z,13.70
2023-06-04T23:59:25.902Z,13.70
